sensor_id;sensor_type;location;lat;lon;timestamp;temperature;humidity
71942;DHT22;59997;53.300;-6.260;2024-02-28T00:02:08;4.13;88.34
71942;DHT22;59997;53.300;-6.260;2024-02-28T00:04:33;4.05;88.62
71942;DHT22;59997;53.300;-6.260;2024-02-28T00:06:59;3.97;88.36
71942;DHT22;59997;53.300;-6.260;2024-02-28T00:09:24;3.76;88.38
71942;DHT22;59997;53.300;-6.260;2024-02-28T00:11:50;3.68;88.47
71942;DHT22;59997;53.300;-6.260;2024-02-28T00:14:16;3.87;88.65
71942;DHT22;59997;53.300;-6.260;2024-02-28T00:16:42;3.89;88.42
71942;DHT22;59997;53.300;-6.260;2024-02-28T00:19:09;3.83;88.33
71942;DHT22;59997;53.300;-6.260;2024-02-28T00:21:36;3.93;88.33
71942;DHT22;59997;53.300;-6.260;2024-02-28T00:24:02;3.98;88.31
71942;DHT22;59997;53.300;-6.260;2024-02-28T00:26:27;3.98;88.30
71942;DHT22;59997;53.300;-6.260;2024-02-28T00:28:53;3.90;88.27
71942;DHT22;59997;53.300;-6.260;2024-02-28T00:31:19;3.91;88.30
71942;DHT22;59997;53.300;-6.260;2024-02-28T00:33:44;3.91;88.32
71942;DHT22;59997;53.300;-6.260;2024-02-28T00:36:10;4.11;88.27
71942;DHT22;59997;53.300;-6.260;2024-02-28T00:38:35;4.05;88.14
71942;DHT22;59997;53.300;-6.260;2024-02-28T00:41:01;4.05;88.30
71942;DHT22;59997;53.300;-6.260;2024-02-28T00:43:26;4.15;88.16
71942;DHT22;59997;53.300;-6.260;2024-02-28T00:45:52;4.24;87.97
71942;DHT22;59997;53.300;-6.260;2024-02-28T00:48:17;4.38;87.88
71942;DHT22;59997;53.300;-6.260;2024-02-28T00:50:43;4.53;87.69
71942;DHT22;59997;53.300;-6.260;2024-02-28T00:53:08;4.53;87.73
71942;DHT22;59997;53.300;-6.260;2024-02-28T00:55:34;4.62;87.70
71942;DHT22;59997;53.300;-6.260;2024-02-28T00:57:59;4.69;87.67
71942;DHT22;59997;53.300;-6.260;2024-02-28T01:00:25;4.73;87.71
71942;DHT22;59997;53.300;-6.260;2024-02-28T01:02:50;4.72;87.41
71942;DHT22;59997;53.300;-6.260;2024-02-28T01:05:16;4.84;87.12
71942;DHT22;59997;53.300;-6.260;2024-02-28T01:07:41;4.95;86.79
71942;DHT22;59997;53.300;-6.260;2024-02-28T01:10:07;4.94;87.10
71942;DHT22;59997;53.300;-6.260;2024-02-28T01:12:32;5.08;86.83
71942;DHT22;59997;53.300;-6.260;2024-02-28T01:14:58;4.94;86.93
71942;DHT22;59997;53.300;-6.260;2024-02-28T01:17:24;4.88;87.15
71942;DHT22;59997;53.300;-6.260;2024-02-28T01:19:49;4.97;87.34
71942;DHT22;59997;53.300;-6.260;2024-02-28T01:22:15;4.95;87.35
71942;DHT22;59997;53.300;-6.260;2024-02-28T01:24:40;5.09;87.13
71942;DHT22;59997;53.300;-6.260;2024-02-28T01:27:06;5.16;87.25
71942;DHT22;59997;53.300;-6.260;2024-02-28T01:29:31;5.26;86.96
71942;DHT22;59997;53.300;-6.260;2024-02-28T01:31:57;5.42;86.42
71942;DHT22;59997;53.300;-6.260;2024-02-28T01:34:22;5.52;86.16
71942;DHT22;59997;53.300;-6.260;2024-02-28T01:36:48;5.57;86.06
71942;DHT22;59997;53.300;-6.260;2024-02-28T01:39:13;5.64;85.90
71942;DHT22;59997;53.300;-6.260;2024-02-28T01:41:39;5.73;85.61
71942;DHT22;59997;53.300;-6.260;2024-02-28T01:44:04;5.78;85.16
71942;DHT22;59997;53.300;-6.260;2024-02-28T01:46:31;5.83;84.56
71942;DHT22;59997;53.300;-6.260;2024-02-28T01:48:57;5.83;84.87
71942;DHT22;59997;53.300;-6.260;2024-02-28T01:51:24;5.81;85.20
71942;DHT22;59997;53.300;-6.260;2024-02-28T01:53:52;5.73;85.50
71942;DHT22;59997;53.300;-6.260;2024-02-28T01:56:19;5.67;85.70
71942;DHT22;59997;53.300;-6.260;2024-02-28T01:58:47;5.59;86.02
71942;DHT22;59997;53.300;-6.260;2024-02-28T02:01:16;5.81;85.37
71942;DHT22;59997;53.300;-6.260;2024-02-28T02:03:45;6.04;84.49
71942;DHT22;59997;53.300;-6.260;2024-02-28T02:06:11;6.19;83.36
71942;DHT22;59997;53.300;-6.260;2024-02-28T02:08:37;5.99;83.72
71942;DHT22;59997;53.300;-6.260;2024-02-28T02:11:03;5.88;84.22
71942;DHT22;59997;53.300;-6.260;2024-02-28T02:13:29;6.11;83.93
71942;DHT22;59997;53.300;-6.260;2024-02-28T02:15:54;6.11;83.91
71942;DHT22;59997;53.300;-6.260;2024-02-28T02:18:20;6.19;83.72
71942;DHT22;59997;53.300;-6.260;2024-02-28T02:20:49;6.15;84.02
71942;DHT22;59997;53.300;-6.260;2024-02-28T02:23:15;5.94;84.21
71942;DHT22;59997;53.300;-6.260;2024-02-28T02:25:47;5.83;84.94
71942;DHT22;59997;53.300;-6.260;2024-02-28T02:28:13;5.74;85.64
71942;DHT22;59997;53.300;-6.260;2024-02-28T02:30:39;5.64;85.91
71942;DHT22;59997;53.300;-6.260;2024-02-28T02:33:05;5.52;85.98
71942;DHT22;59997;53.300;-6.260;2024-02-28T02:35:31;5.52;86.22
71942;DHT22;59997;53.300;-6.260;2024-02-28T02:37:57;5.53;86.11
71942;DHT22;59997;53.300;-6.260;2024-02-28T02:40:23;5.42;86.36
71942;DHT22;59997;53.300;-6.260;2024-02-28T02:42:48;5.33;86.78
71942;DHT22;59997;53.300;-6.260;2024-02-28T02:45:14;5.21;87.55
71942;DHT22;59997;53.300;-6.260;2024-02-28T02:47:39;5.24;87.50
71942;DHT22;59997;53.300;-6.260;2024-02-28T02:50:05;5.14;87.62
71942;DHT22;59997;53.300;-6.260;2024-02-28T02:52:32;4.98;88.09
71942;DHT22;59997;53.300;-6.260;2024-02-28T02:54:57;4.90;88.07
71942;DHT22;59997;53.300;-6.260;2024-02-28T02:57:23;4.87;88.29
71942;DHT22;59997;53.300;-6.260;2024-02-28T02:59:48;4.90;88.41
71942;DHT22;59997;53.300;-6.260;2024-02-28T03:02:13;4.97;88.07
71942;DHT22;59997;53.300;-6.260;2024-02-28T03:04:39;5.02;88.04
71942;DHT22;59997;53.300;-6.260;2024-02-28T03:07:04;4.98;88.27
71942;DHT22;59997;53.300;-6.260;2024-02-28T03:09:30;4.92;88.34
71942;DHT22;59997;53.300;-6.260;2024-02-28T03:11:55;4.97;88.00
71942;DHT22;59997;53.300;-6.260;2024-02-28T03:14:21;4.91;88.01
71942;DHT22;59997;53.300;-6.260;2024-02-28T03:16:47;5.07;88.15
71942;DHT22;59997;53.300;-6.260;2024-02-28T03:19:14;5.14;87.99
71942;DHT22;59997;53.300;-6.260;2024-02-28T03:21:40;5.47;87.11
71942;DHT22;59997;53.300;-6.260;2024-02-28T03:24:06;5.50;86.76
71942;DHT22;59997;53.300;-6.260;2024-02-28T03:26:32;5.35;87.09
71942;DHT22;59997;53.300;-6.260;2024-02-28T03:28:58;5.42;87.10
71942;DHT22;59997;53.300;-6.260;2024-02-28T03:31:24;5.33;87.07
71942;DHT22;59997;53.300;-6.260;2024-02-28T03:33:49;5.25;87.53
71942;DHT22;59997;53.300;-6.260;2024-02-28T03:36:16;5.28;87.61
71942;DHT22;59997;53.300;-6.260;2024-02-28T03:38:41;5.63;86.52
71942;DHT22;59997;53.300;-6.260;2024-02-28T03:41:07;5.70;86.29
71942;DHT22;59997;53.300;-6.260;2024-02-28T03:43:32;5.59;86.46
71942;DHT22;59997;53.300;-6.260;2024-02-28T03:45:58;5.47;86.62
71942;DHT22;59997;53.300;-6.260;2024-02-28T03:48:23;5.42;86.90
71942;DHT22;59997;53.300;-6.260;2024-02-28T03:50:49;5.44;86.97
71942;DHT22;59997;53.300;-6.260;2024-02-28T03:53:14;5.54;87.35
71942;DHT22;59997;53.300;-6.260;2024-02-28T03:55:40;5.63;86.77
71942;DHT22;59997;53.300;-6.260;2024-02-28T03:58:05;5.53;86.87
71942;DHT22;59997;53.300;-6.260;2024-02-28T04:00:34;5.40;87.25
71942;DHT22;59997;53.300;-6.260;2024-02-28T04:03:00;5.36;87.43
71942;DHT22;59997;53.300;-6.260;2024-02-28T04:05:25;5.57;87.28
71942;DHT22;59997;53.300;-6.260;2024-02-28T04:07:51;5.53;87.17
71942;DHT22;59997;53.300;-6.260;2024-02-28T04:10:16;5.46;87.55
71942;DHT22;59997;53.300;-6.260;2024-02-28T04:12:43;5.47;87.51
71942;DHT22;59997;53.300;-6.260;2024-02-28T04:15:11;5.32;88.26
71942;DHT22;59997;53.300;-6.260;2024-02-28T04:17:38;5.26;88.29
71942;DHT22;59997;53.300;-6.260;2024-02-28T04:20:07;5.60;87.48
71942;DHT22;59997;53.300;-6.260;2024-02-28T04:22:33;5.74;86.56
71942;DHT22;59997;53.300;-6.260;2024-02-28T04:24:58;5.66;86.68
71942;DHT22;59997;53.300;-6.260;2024-02-28T04:27:24;5.60;86.97
71942;DHT22;59997;53.300;-6.260;2024-02-28T04:29:49;5.47;87.22
71942;DHT22;59997;53.300;-6.260;2024-02-28T04:32:15;5.67;86.97
71942;DHT22;59997;53.300;-6.260;2024-02-28T04:34:40;5.60;86.98
71942;DHT22;59997;53.300;-6.260;2024-02-28T04:37:06;5.57;87.48
71942;DHT22;59997;53.300;-6.260;2024-02-28T04:39:31;5.83;86.57
71942;DHT22;59997;53.300;-6.260;2024-02-28T04:41:56;5.70;86.92
71942;DHT22;59997;53.300;-6.260;2024-02-28T04:44:22;5.78;86.86
71942;DHT22;59997;53.300;-6.260;2024-02-28T04:46:47;5.87;86.28
71942;DHT22;59997;53.300;-6.260;2024-02-28T04:49:13;5.97;85.92
71942;DHT22;59997;53.300;-6.260;2024-02-28T04:51:38;6.04;84.97
71942;DHT22;59997;53.300;-6.260;2024-02-28T04:54:04;6.15;85.04
71942;DHT22;59997;53.300;-6.260;2024-02-28T04:56:29;6.40;84.11
71942;DHT22;59997;53.300;-6.260;2024-02-28T04:58:55;6.64;82.24
71942;DHT22;59997;53.300;-6.260;2024-02-28T05:01:20;6.87;80.98
71942;DHT22;59997;53.300;-6.260;2024-02-28T05:03:47;6.93;80.63
71942;DHT22;59997;53.300;-6.260;2024-02-28T05:06:12;6.82;82.30
71942;DHT22;59997;53.300;-6.260;2024-02-28T05:08:38;6.74;82.83
71942;DHT22;59997;53.300;-6.260;2024-02-28T05:11:03;6.50;83.57
71942;DHT22;59997;53.300;-6.260;2024-02-28T05:13:29;6.46;84.30
71942;DHT22;59997;53.300;-6.260;2024-02-28T05:15:54;6.55;84.00
71942;DHT22;59997;53.300;-6.260;2024-02-28T05:18:20;6.36;84.82
71942;DHT22;59997;53.300;-6.260;2024-02-28T05:20:46;6.34;84.91
71942;DHT22;59997;53.300;-6.260;2024-02-28T05:23:11;6.26;85.28
71942;DHT22;59997;53.300;-6.260;2024-02-28T05:25:38;6.28;85.46
71942;DHT22;59997;53.300;-6.260;2024-02-28T05:28:04;6.20;85.08
71942;DHT22;59997;53.300;-6.260;2024-02-28T05:30:29;6.25;84.86
71942;DHT22;59997;53.300;-6.260;2024-02-28T05:32:55;6.48;83.30
71942;DHT22;59997;53.300;-6.260;2024-02-28T05:35:21;6.54;83.84
71942;DHT22;59997;53.300;-6.260;2024-02-28T05:37:46;6.61;84.26
71942;DHT22;59997;53.300;-6.260;2024-02-28T05:40:12;6.48;84.27
71942;DHT22;59997;53.300;-6.260;2024-02-28T05:42:38;6.43;85.09
71942;DHT22;59997;53.300;-6.260;2024-02-28T05:45:06;6.29;85.58
71942;DHT22;59997;53.300;-6.260;2024-02-28T05:47:31;6.19;85.78
71942;DHT22;59997;53.300;-6.260;2024-02-28T05:49:57;6.16;86.35
71942;DHT22;59997;53.300;-6.260;2024-02-28T05:52:24;6.19;86.57
71942;DHT22;59997;53.300;-6.260;2024-02-28T05:54:51;6.08;87.58
71942;DHT22;59997;53.300;-6.260;2024-02-28T05:57:16;6.08;88.01
71942;DHT22;59997;53.300;-6.260;2024-02-28T05:59:42;6.06;87.57
71942;DHT22;59997;53.300;-6.260;2024-02-28T06:02:08;6.08;87.33
71942;DHT22;59997;53.300;-6.260;2024-02-28T06:04:33;6.19;87.04
71942;DHT22;59997;53.300;-6.260;2024-02-28T06:06:59;6.16;87.56
71942;DHT22;59997;53.300;-6.260;2024-02-28T06:09:25;6.05;88.02
71942;DHT22;59997;53.300;-6.260;2024-02-28T06:11:52;6.02;88.28
71942;DHT22;59997;53.300;-6.260;2024-02-28T06:14:18;6.06;88.17
71942;DHT22;59997;53.300;-6.260;2024-02-28T06:16:47;5.97;88.29
71942;DHT22;59997;53.300;-6.260;2024-02-28T06:19:12;6.01;88.39
71942;DHT22;59997;53.300;-6.260;2024-02-28T06:21:38;6.01;88.47
71942;DHT22;59997;53.300;-6.260;2024-02-28T06:24:04;6.06;88.31
71942;DHT22;59997;53.300;-6.260;2024-02-28T06:26:30;6.02;88.52
71942;DHT22;59997;53.300;-6.260;2024-02-28T06:28:57;6.02;88.48
71942;DHT22;59997;53.300;-6.260;2024-02-28T06:31:27;5.93;88.85
71942;DHT22;59997;53.300;-6.260;2024-02-28T06:33:55;5.91;88.81
71942;DHT22;59997;53.300;-6.260;2024-02-28T06:36:21;5.87;89.10
71942;DHT22;59997;53.300;-6.260;2024-02-28T06:38:46;5.88;89.23
71942;DHT22;59997;53.300;-6.260;2024-02-28T06:41:12;5.84;89.21
71942;DHT22;59997;53.300;-6.260;2024-02-28T06:43:38;5.88;89.34
71942;DHT22;59997;53.300;-6.260;2024-02-28T06:46:04;5.94;89.25
71942;DHT22;59997;53.300;-6.260;2024-02-28T06:48:30;5.90;89.54
71942;DHT22;59997;53.300;-6.260;2024-02-28T06:50:55;5.94;89.68
71942;DHT22;59997;53.300;-6.260;2024-02-28T06:53:21;6.01;89.70
71942;DHT22;59997;53.300;-6.260;2024-02-28T06:55:47;6.06;89.66
71942;DHT22;59997;53.300;-6.260;2024-02-28T06:58:14;6.18;89.66
71942;DHT22;59997;53.300;-6.260;2024-02-28T07:00:40;6.20;89.63
71942;DHT22;59997;53.300;-6.260;2024-02-28T07:03:05;6.26;89.81
71942;DHT22;59997;53.300;-6.260;2024-02-28T07:05:32;6.32;89.59
71942;DHT22;59997;53.300;-6.260;2024-02-28T07:07:59;6.40;89.30
71942;DHT22;59997;53.300;-6.260;2024-02-28T07:10:24;6.43;89.44
71942;DHT22;59997;53.300;-6.260;2024-02-28T07:12:50;6.78;89.16
71942;DHT22;59997;53.300;-6.260;2024-02-28T07:15:15;6.77;89.33
71942;DHT22;59997;53.300;-6.260;2024-02-28T07:17:44;6.67;89.52
71942;DHT22;59997;53.300;-6.260;2024-02-28T07:20:10;6.77;89.76
71942;DHT22;59997;53.300;-6.260;2024-02-28T07:22:36;6.87;89.87
71942;DHT22;59997;53.300;-6.260;2024-02-28T07:25:02;6.91;89.85
71942;DHT22;59997;53.300;-6.260;2024-02-28T07:27:29;6.95;90.05
71942;DHT22;59997;53.300;-6.260;2024-02-28T07:29:55;7.03;90.03
71942;DHT22;59997;53.300;-6.260;2024-02-28T07:32:20;7.17;90.00
71942;DHT22;59997;53.300;-6.260;2024-02-28T07:34:45;7.28;89.64
71942;DHT22;59997;53.300;-6.260;2024-02-28T07:37:11;7.27;89.55
71942;DHT22;59997;53.300;-6.260;2024-02-28T07:39:37;7.16;89.79
71942;DHT22;59997;53.300;-6.260;2024-02-28T07:42:03;7.34;89.72
71942;DHT22;59997;53.300;-6.260;2024-02-28T07:44:28;7.28;89.68
71942;DHT22;59997;53.300;-6.260;2024-02-28T07:46:57;7.43;89.63
71942;DHT22;59997;53.300;-6.260;2024-02-28T07:49:23;7.40;89.79
71942;DHT22;59997;53.300;-6.260;2024-02-28T07:51:48;7.43;89.86
71942;DHT22;59997;53.300;-6.260;2024-02-28T07:54:14;7.69;89.89
71942;DHT22;59997;53.300;-6.260;2024-02-28T07:56:39;7.89;89.89
71942;DHT22;59997;53.300;-6.260;2024-02-28T07:59:05;7.96;89.89
71942;DHT22;59997;53.300;-6.260;2024-02-28T08:01:30;8.06;90.11
71942;DHT22;59997;53.300;-6.260;2024-02-28T08:03:56;8.37;90.34
71942;DHT22;59997;53.300;-6.260;2024-02-28T08:06:22;8.72;90.17
71942;DHT22;59997;53.300;-6.260;2024-02-28T08:08:47;8.89;89.98
71942;DHT22;59997;53.300;-6.260;2024-02-28T08:11:13;8.97;89.90
71942;DHT22;59997;53.300;-6.260;2024-02-28T08:13:39;9.08;89.69
71942;DHT22;59997;53.300;-6.260;2024-02-28T08:16:04;9.28;89.17
71942;DHT22;59997;53.300;-6.260;2024-02-28T08:18:32;9.38;88.90
71942;DHT22;59997;53.300;-6.260;2024-02-28T08:20:59;9.34;88.99
71942;DHT22;59997;53.300;-6.260;2024-02-28T08:23:27;9.41;89.02
71942;DHT22;59997;53.300;-6.260;2024-02-28T08:25:52;9.45;89.12
71942;DHT22;59997;53.300;-6.260;2024-02-28T08:28:18;9.43;89.31
71942;DHT22;59997;53.300;-6.260;2024-02-28T08:30:44;9.57;89.06
71942;DHT22;59997;53.300;-6.260;2024-02-28T08:33:09;9.72;88.63
71942;DHT22;59997;53.300;-6.260;2024-02-28T08:35:36;9.84;88.52
71942;DHT22;59997;53.300;-6.260;2024-02-28T08:38:01;9.84;88.70
71942;DHT22;59997;53.300;-6.260;2024-02-28T08:40:28;9.86;88.70
71942;DHT22;59997;53.300;-6.260;2024-02-28T08:42:54;10.01;88.52
71942;DHT22;59997;53.300;-6.260;2024-02-28T08:45:19;10.12;88.64
71942;DHT22;59997;53.300;-6.260;2024-02-28T08:47:45;10.34;88.04
71942;DHT22;59997;53.300;-6.260;2024-02-28T08:50:11;10.49;88.16
71942;DHT22;59997;53.300;-6.260;2024-02-28T08:52:36;10.69;87.80
71942;DHT22;59997;53.300;-6.260;2024-02-28T08:55:02;10.88;87.39
71942;DHT22;59997;53.300;-6.260;2024-02-28T08:57:28;10.98;86.83
71942;DHT22;59997;53.300;-6.260;2024-02-28T08:59:55;10.98;87.31
71942;DHT22;59997;53.300;-6.260;2024-02-28T09:02:21;10.90;87.26
71942;DHT22;59997;53.300;-6.260;2024-02-28T09:04:47;10.78;87.48
71942;DHT22;59997;53.300;-6.260;2024-02-28T09:07:18;10.80;87.53
71942;DHT22;59997;53.300;-6.260;2024-02-28T09:09:45;10.87;87.65
71942;DHT22;59997;53.300;-6.260;2024-02-28T09:12:11;10.93;87.57
71942;DHT22;59997;53.300;-6.260;2024-02-28T09:14:36;11.04;87.31
71942;DHT22;59997;53.300;-6.260;2024-02-28T09:17:02;11.15;87.17
71942;DHT22;59997;53.300;-6.260;2024-02-28T09:19:31;11.18;87.63
71942;DHT22;59997;53.300;-6.260;2024-02-28T09:21:57;11.19;87.76
71942;DHT22;59997;53.300;-6.260;2024-02-28T09:24:26;11.23;87.50
71942;DHT22;59997;53.300;-6.260;2024-02-28T09:26:52;11.23;87.42
71942;DHT22;59997;53.300;-6.260;2024-02-28T09:29:17;11.29;87.31
71942;DHT22;59997;53.300;-6.260;2024-02-28T09:31:43;11.29;87.35
71942;DHT22;59997;53.300;-6.260;2024-02-28T09:34:08;11.22;87.76
71942;DHT22;59997;53.300;-6.260;2024-02-28T09:36:41;11.16;87.77
71942;DHT22;59997;53.300;-6.260;2024-02-28T09:39:07;11.05;88.00
71942;DHT22;59997;53.300;-6.260;2024-02-28T09:41:33;11.02;88.15
71942;DHT22;59997;53.300;-6.260;2024-02-28T09:44:00;11.02;88.06
71942;DHT22;59997;53.300;-6.260;2024-02-28T09:46:27;11.15;88.01
71942;DHT22;59997;53.300;-6.260;2024-02-28T09:48:54;11.26;87.83
71942;DHT22;59997;53.300;-6.260;2024-02-28T09:51:21;11.32;87.69
71942;DHT22;59997;53.300;-6.260;2024-02-28T09:53:47;11.33;87.95
71942;DHT22;59997;53.300;-6.260;2024-02-28T09:56:12;11.35;87.76
71942;DHT22;59997;53.300;-6.260;2024-02-28T09:58:39;11.19;87.90
71942;DHT22;59997;53.300;-6.260;2024-02-28T10:01:08;11.29;87.95
71942;DHT22;59997;53.300;-6.260;2024-02-28T10:03:35;11.50;87.68
71942;DHT22;59997;53.300;-6.260;2024-02-28T10:06:01;11.69;87.23
71942;DHT22;59997;53.300;-6.260;2024-02-28T10:08:27;12.02;86.87
71942;DHT22;59997;53.300;-6.260;2024-02-28T10:10:54;12.26;86.42
71942;DHT22;59997;53.300;-6.260;2024-02-28T10:13:21;12.58;85.99
71942;DHT22;59997;53.300;-6.260;2024-02-28T10:15:50;12.57;86.23
71942;DHT22;59997;53.300;-6.260;2024-02-28T10:18:15;12.71;86.10
71942;DHT22;59997;53.300;-6.260;2024-02-28T10:20:41;12.54;86.21
71942;DHT22;59997;53.300;-6.260;2024-02-28T10:23:07;12.58;86.24
71942;DHT22;59997;53.300;-6.260;2024-02-28T10:25:47;12.78;86.24
71942;DHT22;59997;53.300;-6.260;2024-02-28T10:28:13;13.00;85.84
71942;DHT22;59997;53.300;-6.260;2024-02-28T10:30:43;13.13;85.70
71942;DHT22;59997;53.300;-6.260;2024-02-28T10:33:12;12.73;85.85
71942;DHT22;59997;53.300;-6.260;2024-02-28T10:35:42;12.47;86.50
71942;DHT22;59997;53.300;-6.260;2024-02-28T10:38:12;12.36;86.87
71942;DHT22;59997;53.300;-6.260;2024-02-28T10:40:41;12.28;87.17
71942;DHT22;59997;53.300;-6.260;2024-02-28T10:43:08;12.32;87.26
71942;DHT22;59997;53.300;-6.260;2024-02-28T10:45:36;12.39;87.30
71942;DHT22;59997;53.300;-6.260;2024-02-28T10:48:04;12.43;87.40
71942;DHT22;59997;53.300;-6.260;2024-02-28T10:50:30;12.39;87.24
71942;DHT22;59997;53.300;-6.260;2024-02-28T10:53:01;12.41;87.17
71942;DHT22;59997;53.300;-6.260;2024-02-28T10:55:32;12.43;87.45
71942;DHT22;59997;53.300;-6.260;2024-02-28T10:58:05;12.57;87.03
71942;DHT22;59997;53.300;-6.260;2024-02-28T11:00:36;12.64;86.99
71942;DHT22;59997;53.300;-6.260;2024-02-28T11:03:04;12.64;87.07
71942;DHT22;59997;53.300;-6.260;2024-02-28T11:05:40;12.58;86.94
71942;DHT22;59997;53.300;-6.260;2024-02-28T11:08:10;12.75;86.93
71942;DHT22;59997;53.300;-6.260;2024-02-28T11:10:40;12.73;86.81
71942;DHT22;59997;53.300;-6.260;2024-02-28T11:13:07;12.73;86.79
71942;DHT22;59997;53.300;-6.260;2024-02-28T11:15:33;12.88;86.75
71942;DHT22;59997;53.300;-6.260;2024-02-28T11:18:09;12.89;86.94
71942;DHT22;59997;53.300;-6.260;2024-02-28T11:20:35;12.91;86.63
71942;DHT22;59997;53.300;-6.260;2024-02-28T11:23:00;12.99;86.55
71942;DHT22;59997;53.300;-6.260;2024-02-28T11:25:26;13.10;86.61
71942;DHT22;59997;53.300;-6.260;2024-02-28T11:27:52;13.30;86.57
71942;DHT22;59997;53.300;-6.260;2024-02-28T11:30:18;13.17;86.40
71942;DHT22;59997;53.300;-6.260;2024-02-28T11:32:44;13.12;86.22
71942;DHT22;59997;53.300;-6.260;2024-02-28T11:35:10;13.10;86.30
71942;DHT22;59997;53.300;-6.260;2024-02-28T11:37:38;12.93;86.43
71942;DHT22;59997;53.300;-6.260;2024-02-28T11:40:07;13.09;86.36
71942;DHT22;59997;53.300;-6.260;2024-02-28T11:42:38;13.17;86.43
71942;DHT22;59997;53.300;-6.260;2024-02-28T11:45:04;13.27;86.37
71942;DHT22;59997;53.300;-6.260;2024-02-28T11:47:32;13.34;86.31
71942;DHT22;59997;53.300;-6.260;2024-02-28T11:50:02;13.39;85.98
71942;DHT22;59997;53.300;-6.260;2024-02-28T11:52:30;13.51;86.30
71942;DHT22;59997;53.300;-6.260;2024-02-28T11:54:55;13.43;86.06
71942;DHT22;59997;53.300;-6.260;2024-02-28T11:57:21;13.50;86.06
71942;DHT22;59997;53.300;-6.260;2024-02-28T11:59:47;13.47;85.98
71942;DHT22;59997;53.300;-6.260;2024-02-28T12:02:14;13.44;85.57
71942;DHT22;59997;53.300;-6.260;2024-02-28T12:04:41;13.50;85.70
71942;DHT22;59997;53.300;-6.260;2024-02-28T12:07:08;13.81;85.62
71942;DHT22;59997;53.300;-6.260;2024-02-28T12:09:33;13.90;84.84
71942;DHT22;59997;53.300;-6.260;2024-02-28T12:12:02;13.95;84.95
71942;DHT22;59997;53.300;-6.260;2024-02-28T12:14:36;14.12;84.77
71942;DHT22;59997;53.300;-6.260;2024-02-28T12:17:03;14.13;84.43
71942;DHT22;59997;53.300;-6.260;2024-02-28T12:19:29;13.95;84.73
71942;DHT22;59997;53.300;-6.260;2024-02-28T12:21:54;13.93;84.95
71942;DHT22;59997;53.300;-6.260;2024-02-28T12:24:20;13.99;85.07
71942;DHT22;59997;53.300;-6.260;2024-02-28T12:26:46;14.06;84.76
71942;DHT22;59997;53.300;-6.260;2024-02-28T12:29:12;14.08;84.80
71942;DHT22;59997;53.300;-6.260;2024-02-28T12:31:38;14.13;85.00
71942;DHT22;59997;53.300;-6.260;2024-02-28T12:34:04;13.96;85.06
71942;DHT22;59997;53.300;-6.260;2024-02-28T12:36:29;13.92;85.50
71942;DHT22;59997;53.300;-6.260;2024-02-28T12:38:56;13.99;85.46
71942;DHT22;59997;53.300;-6.260;2024-02-28T12:41:22;13.99;85.85
71942;DHT22;59997;53.300;-6.260;2024-02-28T12:43:47;13.82;85.53
71942;DHT22;59997;53.300;-6.260;2024-02-28T12:46:13;13.71;85.76
71942;DHT22;59997;53.300;-6.260;2024-02-28T12:48:39;13.77;85.81
71942;DHT22;59997;53.300;-6.260;2024-02-28T12:51:06;13.61;86.87
71942;DHT22;59997;53.300;-6.260;2024-02-28T12:53:32;13.54;87.30
71942;DHT22;59997;53.300;-6.260;2024-02-28T12:55:57;13.32;87.48
71942;DHT22;59997;53.300;-6.260;2024-02-28T12:58:23;13.24;87.46
71942;DHT22;59997;53.300;-6.260;2024-02-28T13:00:49;13.36;87.70
71942;DHT22;59997;53.300;-6.260;2024-02-28T13:03:14;13.41;87.39
71942;DHT22;59997;53.300;-6.260;2024-02-28T13:05:41;13.47;87.14
71942;DHT22;59997;53.300;-6.260;2024-02-28T13:08:07;13.64;86.90
71942;DHT22;59997;53.300;-6.260;2024-02-28T13:10:33;13.68;86.74
71942;DHT22;59997;53.300;-6.260;2024-02-28T13:13:02;13.69;86.81
71942;DHT22;59997;53.300;-6.260;2024-02-28T13:15:27;13.69;86.45
71942;DHT22;59997;53.300;-6.260;2024-02-28T13:17:53;13.64;86.35
71942;DHT22;59997;53.300;-6.260;2024-02-28T13:20:18;13.72;86.82
71942;DHT22;59997;53.300;-6.260;2024-02-28T13:22:44;13.65;86.70
71942;DHT22;59997;53.300;-6.260;2024-02-28T13:25:11;13.64;86.45
71942;DHT22;59997;53.300;-6.260;2024-02-28T13:27:36;13.50;86.66
71942;DHT22;59997;53.300;-6.260;2024-02-28T13:30:03;13.55;86.93
71942;DHT22;59997;53.300;-6.260;2024-02-28T13:32:29;13.48;86.73
71942;DHT22;59997;53.300;-6.260;2024-02-28T13:34:54;13.46;87.05
71942;DHT22;59997;53.300;-6.260;2024-02-28T13:37:20;13.51;87.11
71942;DHT22;59997;53.300;-6.260;2024-02-28T13:39:45;13.47;86.96
71942;DHT22;59997;53.300;-6.260;2024-02-28T13:42:12;13.55;87.13
71942;DHT22;59997;53.300;-6.260;2024-02-28T13:44:38;13.51;87.00
71942;DHT22;59997;53.300;-6.260;2024-02-28T13:47:04;13.60;87.12
71942;DHT22;59997;53.300;-6.260;2024-02-28T13:49:30;13.69;86.95
71942;DHT22;59997;53.300;-6.260;2024-02-28T13:51:55;13.74;86.89
71942;DHT22;59997;53.300;-6.260;2024-02-28T13:54:21;13.71;86.73
71942;DHT22;59997;53.300;-6.260;2024-02-28T13:56:46;13.78;86.74
71942;DHT22;59997;53.300;-6.260;2024-02-28T13:59:12;13.78;87.13
71942;DHT22;59997;53.300;-6.260;2024-02-28T14:01:38;13.77;87.10
71942;DHT22;59997;53.300;-6.260;2024-02-28T14:04:04;13.77;87.18
71942;DHT22;59997;53.300;-6.260;2024-02-28T14:06:29;13.75;87.25
71942;DHT22;59997;53.300;-6.260;2024-02-28T14:08:55;13.81;86.96
71942;DHT22;59997;53.300;-6.260;2024-02-28T14:11:22;13.95;87.08
71942;DHT22;59997;53.300;-6.260;2024-02-28T14:13:47;14.05;87.11
71942;DHT22;59997;53.300;-6.260;2024-02-28T14:16:13;14.09;86.95
71942;DHT22;59997;53.300;-6.260;2024-02-28T14:18:38;14.12;86.93
71942;DHT22;59997;53.300;-6.260;2024-02-28T14:21:04;14.12;86.95
71942;DHT22;59997;53.300;-6.260;2024-02-28T14:23:30;13.99;86.79
71942;DHT22;59997;53.300;-6.260;2024-02-28T14:25:56;14.01;86.73
71942;DHT22;59997;53.300;-6.260;2024-02-28T14:28:22;14.08;86.83
71942;DHT22;59997;53.300;-6.260;2024-02-28T14:30:47;14.10;86.63
71942;DHT22;59997;53.300;-6.260;2024-02-28T14:33:14;14.12;86.84
71942;DHT22;59997;53.300;-6.260;2024-02-28T14:35:40;13.98;86.94
71942;DHT22;59997;53.300;-6.260;2024-02-28T14:38:06;13.79;87.22
71942;DHT22;59997;53.300;-6.260;2024-02-28T14:40:32;13.72;87.88
71942;DHT22;59997;53.300;-6.260;2024-02-28T14:42:58;13.61;88.10
71942;DHT22;59997;53.300;-6.260;2024-02-28T14:45:23;13.51;88.22
71942;DHT22;59997;53.300;-6.260;2024-02-28T14:48:03;13.28;88.10
71942;DHT22;59997;53.300;-6.260;2024-02-28T14:50:28;13.12;88.01
71942;DHT22;59997;53.300;-6.260;2024-02-28T14:52:54;13.03;88.18
71942;DHT22;59997;53.300;-6.260;2024-02-28T14:55:19;12.92;88.19
71942;DHT22;59997;53.300;-6.260;2024-02-28T14:57:45;12.87;88.22
71942;DHT22;59997;53.300;-6.260;2024-02-28T15:00:11;12.87;88.42
71942;DHT22;59997;53.300;-6.260;2024-02-28T15:02:40;12.88;88.41
71942;DHT22;59997;53.300;-6.260;2024-02-28T15:05:06;12.91;88.22
71942;DHT22;59997;53.300;-6.260;2024-02-28T15:07:33;13.03;88.47
71942;DHT22;59997;53.300;-6.260;2024-02-28T15:09:59;13.06;88.34
71942;DHT22;59997;53.300;-6.260;2024-02-28T15:12:30;13.00;88.24
71942;DHT22;59997;53.300;-6.260;2024-02-28T15:14:56;12.99;88.34
71942;DHT22;59997;53.300;-6.260;2024-02-28T15:17:22;13.00;88.39
71942;DHT22;59997;53.300;-6.260;2024-02-28T15:19:47;13.02;88.47